Montalba, Texas
Current Conditions -  °F | °C
As of 9:15 PM on Tuesday 25 Nov 2014 (Local Time) from KPSN Reporting Station
Clear Clear  
Wind Chill: 42°   Ceiling: Unl
Heat Index: 42°   Visibility: 10mi
Dew Point: 37°   Wind: 3mph
Humidity: 84%   Direction: 140°SE
Pressure: 30.2"   Gusts: NA
Location:  31.88°N, 95.73°W
Report Text: KPSN 260315Z AUTO 14003KT 10SM CLR 05/02 A3020 RMK AO2 T00530028
Loading
Personal Weather Stations






























Interactive Weather Map New forecast layout! Learn more

10-Day Weather Forecast

Advertisements
Track Severe Weather on mobile